0F2

Bowie Municipal Airport

Bowie, Texas, USA
METAR K0F2 181955Z AUTO 17015G22KT 10SM CLR 20/09 A2968 RMK AO2 T01980089
Observed Flight Rules
Jan-18 @ 19:55 UTC (10 minutes ago) Visual Flight Rules
Wind Visibility Clouds
170° at 15 knots
 Gusting to 22 knots
10 miles
  • Clear skies
Temperatures Readings
Current 20°C / 68°F
Dewpoint 9°C / 48°F
Humidity 49%
Altimeter 29.68" Hg
Pressure 1005.12 hPa
Elevation 336
METAR K0F2 181955Z AUTO 17015G22KT 10SM CLR 20/09 A2968 RMK AO2 T01980089
Observed Flight Rules
Jan-18 @ 19:55 UTC
(10 minutes ago)
VFR
Wind Visibility
170° at 15 knots
 Gusting to 22 knots
10 miles
Clouds
  • Clear skies
Temperature Dewpoint
20°C / 68°F 9°C / 48°F
Humidity Altimeter Pressure
49% 29.68" Hg 1005.12 hPa